Time;durP1;ratioP1;P1;durP2;ratioP2;P2;SDS_P1;SDS_P2;PMS_P1;PMS_P2;Temp;Humidity;BMP_temperature;BMP_pressure;BME280_temperature;BME280_humidity;BME280_pressure;Samples;Min_cycle;Max_cycle;Signal;HPM_P1;HPM_P2
2024/03/21 00:01:12;;;;;;;4.50;4.10;;;12.40;99.90;;;;;;5041447;28;20449;-83
2024/03/21 00:03:40;;;;;;;4.73;4.33;;;12.40;99.90;;;;;;5039083;28;20492;-84
2024/03/21 00:06:06;;;;;;;5.20;4.57;;;12.30;99.90;;;;;;5041944;28;21089;-84
2024/03/21 00:08:33;;;;;;;5.23;4.83;;;12.30;99.90;;;;;;5038538;28;20487;-83
2024/03/21 00:10:59;;;;;;;5.20;4.70;;;12.30;99.90;;;;;;5041585;28;20534;-85
2024/03/21 00:13:28;;;;;;;4.83;4.10;;;12.30;99.90;;;;;;5039902;28;20488;-82
2024/03/21 00:15:54;;;;;;;4.30;4.00;;;12.20;99.90;;;;;;5041772;28;20499;-83
2024/03/21 00:18:23;;;;;;;3.90;3.57;;;12.20;99.90;;;;;;5025789;28;21157;-83
2024/03/21 00:20:50;;;;;;;4.63;3.67;;;12.20;99.90;;;;;;5039282;28;20497;-83
2024/03/21 00:23:17;;;;;;;4.90;3.33;;;12.20;99.90;;;;;;5041029;28;20481;-83
2024/03/21 00:25:43;;;;;;;4.53;4.00;;;12.20;99.90;;;;;;5037208;28;20543;-84
2024/03/21 00:28:11;;;;;;;5.20;3.87;;;12.20;99.90;;;;;;5040257;28;20537;-83
2024/03/21 00:30:40;;;;;;;4.90;3.70;;;12.20;99.90;;;;;;5042438;28;20495;-83
2024/03/21 00:33:08;;;;;;;3.63;3.33;;;12.20;99.90;;;;;;5037693;28;21279;-83
2024/03/21 00:35:35;;;;;;;5.20;3.90;;;12.20;99.90;;;;;;5036132;28;20481;-83
2024/03/21 00:38:01;;;;;;;5.43;4.73;;;12.20;99.90;;;;;;5033879;28;20590;-84
2024/03/21 00:40:28;;;;;;;6.20;3.33;;;12.20;99.90;;;;;;5038963;28;20464;-84
2024/03/21 00:42:55;;;;;;;4.20;3.90;;;12.20;99.90;;;;;;5038426;28;20484;-84
2024/03/21 00:45:22;;;;;;;3.60;3.40;;;12.20;99.90;;;;;;5035142;28;20456;-81
2024/03/21 00:47:49;;;;;;;4.20;3.33;;;12.20;99.90;;;;;;5034057;28;20442;-84
2024/03/21 00:50:17;;;;;;;3.57;3.27;;;12.10;99.90;;;;;;5035723;28;20823;-85
2024/03/21 00:52:43;;;;;;;4.00;3.73;;;12.00;99.90;;;;;;5037183;28;20509;-85
2024/03/21 00:55:10;;;;;;;4.03;3.67;;;12.00;99.90;;;;;;5037478;28;20487;-84
2024/03/21 00:57:36;;;;;;;3.90;3.50;;;12.10;99.90;;;;;;5038385;28;20457;-84
2024/03/21 01:00:04;;;;;;;4.07;3.83;;;12.10;99.90;;;;;;5024490;28;20487;-85
2024/03/21 01:02:30;;;;;;;3.87;3.57;;;12.10;99.90;;;;;;5037603;28;20556;-83
2024/03/21 01:04:59;;;;;;;4.83;3.83;;;12.10;99.90;;;;;;5021134;28;20536;-84
2024/03/21 01:07:25;;;;;;;3.50;3.30;;;12.00;99.90;;;;;;5035267;28;20939;-84
2024/03/21 01:09:52;;;;;;;6.70;3.63;;;12.00;99.90;;;;;;5035157;28;20464;-82
2024/03/21 01:12:19;;;;;;;4.00;3.50;;;12.00;99.90;;;;;;5038988;28;20454;-83
2024/03/21 01:14:46;;;;;;;3.40;3.20;;;12.00;99.90;;;;;;5038046;28;20999;-83
2024/03/21 01:17:12;;;;;;;4.20;3.90;;;12.00;99.90;;;;;;5039580;28;20578;-83
2024/03/21 01:19:40;;;;;;;3.60;3.33;;;12.00;99.90;;;;;;5037869;28;20465;-83
2024/03/21 01:22:07;;;;;;;3.97;3.27;;;12.00;99.90;;;;;;5038547;28;20518;-83
2024/03/21 01:24:34;;;;;;;3.20;3.00;;;11.90;99.90;;;;;;5035892;28;21291;-82
2024/03/21 01:27:00;;;;;;;3.67;3.37;;;11.90;99.90;;;;;;5034810;28;21089;-81
2024/03/21 01:29:28;;;;;;;4.07;3.77;;;11.90;99.90;;;;;;5037382;28;21260;-81
2024/03/21 01:31:54;;;;;;;3.70;3.40;;;11.90;99.90;;;;;;5037196;28;20513;-81
2024/03/21 01:34:21;;;;;;;4.27;3.90;;;11.90;99.90;;;;;;5038561;28;20503;-80
2024/03/21 01:36:49;;;;;;;3.40;3.10;;;11.80;99.90;;;;;;5039048;28;22657;-80
2024/03/21 01:39:19;;;;;;;4.93;3.50;;;11.80;99.90;;;;;;5038031;28;20492;-82
2024/03/21 01:41:45;;;;;;;3.93;3.73;;;11.90;99.90;;;;;;5040867;28;20467;-83
2024/03/21 01:44:17;;;;;;;5.10;3.80;;;11.90;99.90;;;;;;5039616;28;20781;-82
2024/03/21 01:46:43;;;;;;;3.97;3.63;;;11.90;99.90;;;;;;5041188;28;21247;-83
2024/03/21 01:49:11;;;;;;;3.73;3.43;;;11.80;99.90;;;;;;5041869;28;20452;-83
2024/03/21 01:51:38;;;;;;;5.47;4.10;;;11.80;99.90;;;;;;5041832;28;20504;-84
2024/03/21 01:54:07;;;;;;;4.10;3.73;;;11.80;99.90;;;;;;5036715;28;20535;-83
2024/03/21 01:56:37;;;;;;;4.17;3.87;;;11.70;99.90;;;;;;5037686;28;20468;-84
2024/03/21 01:59:04;;;;;;;3.70;3.40;;;11.70;99.90;;;;;;5020919;28;20462;-82
2024/03/21 02:01:32;;;;;;;5.63;4.43;;;11.70;99.90;;;;;;5039050;28;20477;-82
2024/03/21 02:04:03;;;;;;;4.20;3.90;;;11.70;99.90;;;;;;5038223;28;21094;-82
2024/03/21 02:06:32;;;;;;;3.10;3.00;;;11.80;99.90;;;;;;5035952;28;20451;-80
2024/03/21 02:09:01;;;;;;;4.00;3.70;;;11.90;99.90;;;;;;5037388;28;20466;-82
2024/03/21 02:11:28;;;;;;;4.73;4.27;;;11.90;99.90;;;;;;5037935;28;20530;-81
2024/03/21 02:13:57;;;;;;;4.00;3.70;;;11.80;99.90;;;;;;5032902;28;20556;-80
2024/03/21 02:16:23;;;;;;;4.00;3.80;;;11.80;99.90;;;;;;5034892;28;21062;-81
2024/03/21 02:18:51;;;;;;;4.10;3.80;;;11.80;99.90;;;;;;5035572;28;20605;-83
2024/03/21 02:24:01;;;;;;;4.77;4.33;;;11.90;99.90;;;;;;4992534;28;21190;-82
2024/03/21 02:26:27;;;;;;;4.50;4.10;;;11.90;99.90;;;;;;5039383;28;20910;-81
2024/03/21 02:28:54;;;;;;;3.37;3.17;;;11.90;99.90;;;;;;5037545;28;21006;-82
2024/03/21 02:31:22;;;;;;;3.70;3.40;;;12.00;99.90;;;;;;5037412;28;20478;-81
2024/03/21 02:33:49;;;;;;;4.13;3.73;;;12.00;99.90;;;;;;5036134;28;20549;-81
2024/03/21 02:36:16;;;;;;;4.60;3.27;;;11.90;99.90;;;;;;5033504;28;20517;-81
2024/03/21 02:38:45;;;;;;;6.50;4.13;;;11.90;99.90;;;;;;5034933;28;20459;-81
2024/03/21 02:41:12;;;;;;;4.03;3.50;;;12.00;99.90;;;;;;5036839;28;20508;-81
2024/03/21 02:43:40;;;;;;;4.17;3.10;;;12.00;99.90;;;;;;5036104;28;20533;-80
2024/03/21 02:46:06;;;;;;;3.97;3.60;;;12.00;99.90;;;;;;5035986;28;20528;-80
2024/03/21 02:48:34;;;;;;;3.20;3.00;;;12.10;99.90;;;;;;5036112;28;20462;-81
2024/03/21 02:51:00;;;;;;;3.43;3.13;;;12.00;99.90;;;;;;5037294;28;20467;-82
2024/03/21 02:53:27;;;;;;;3.53;3.33;;;12.10;99.90;;;;;;5034191;28;20568;-82
2024/03/21 02:55:54;;;;;;;3.63;3.33;;;12.10;99.90;;;;;;5031559;28;20570;-81
2024/03/21 02:58:22;;;;;;;4.80;4.40;;;12.20;99.90;;;;;;5031537;28;21349;-81
2024/03/21 03:00:48;;;;;;;4.37;4.07;;;12.10;99.90;;;;;;5029858;28;20465;-82
2024/03/21 03:03:15;;;;;;;5.07;4.70;;;12.20;99.90;;;;;;5035779;28;20504;-81
2024/03/21 03:05:42;;;;;;;4.83;4.43;;;12.20;99.90;;;;;;5032997;28;20532;-80
2024/03/21 03:08:10;;;;;;;4.30;4.00;;;12.20;99.90;;;;;;5033177;28;20960;-81
2024/03/21 03:10:37;;;;;;;3.87;3.43;;;12.10;99.90;;;;;;5035375;28;20458;-82
2024/03/21 03:13:04;;;;;;;4.07;3.77;;;12.00;99.90;;;;;;5035473;28;20585;-84
2024/03/21 03:15:32;;;;;;;4.07;3.77;;;12.00;99.90;;;;;;5035227;28;20904;-83
2024/03/21 03:17:59;;;;;;;4.33;4.03;;;12.10;99.90;;;;;;5036553;28;20488;-82
2024/03/21 03:20:25;;;;;;;4.17;3.80;;;12.00;99.90;;;;;;5037311;28;21014;-82
2024/03/21 03:22:53;;;;;;;5.20;4.47;;;12.10;99.90;;;;;;5034854;28;20553;-82
2024/03/21 03:25:19;;;;;;;4.60;4.20;;;12.00;99.90;;;;;;5036624;28;21317;-83
2024/03/21 03:27:46;;;;;;;3.83;3.63;;;12.10;99.90;;;;;;5037444;28;22581;-83
2024/03/21 03:30:14;;;;;;;4.10;3.80;;;12.00;99.90;;;;;;5036446;28;20901;-86
2024/03/21 03:32:57;;;;;;;3.60;3.40;;;12.10;99.90;;;;;;5043136;28;21049;-84
2024/03/21 03:35:40;;;;;;;4.03;3.50;;;12.00;99.90;;;;;;5043868;28;20810;-83
2024/03/21 03:38:09;;;;;;;4.43;3.93;;;12.00;99.90;;;;;;5041390;28;20437;-82
2024/03/21 03:40:37;;;;;;;5.03;3.93;;;11.90;99.90;;;;;;5052567;28;20483;-82
2024/03/21 03:43:04;;;;;;;4.27;3.97;;;11.90;99.90;;;;;;5053364;28;20465;-82
2024/03/21 03:45:31;;;;;;;4.30;4.10;;;11.90;99.90;;;;;;5050346;28;20460;-82
2024/03/21 03:47:59;;;;;;;4.10;3.83;;;12.00;99.90;;;;;;5051313;28;20448;-83
2024/03/21 03:50:27;;;;;;;3.57;3.33;;;12.00;99.90;;;;;;5048291;28;20536;-81
2024/03/21 03:52:54;;;;;;;4.23;4.03;;;12.00;99.90;;;;;;5047353;28;20487;-82
2024/03/21 03:55:20;;;;;;;4.60;4.20;;;11.90;99.90;;;;;;5045176;28;20457;-81
2024/03/21 03:57:47;;;;;;;4.67;4.37;;;12.00;99.90;;;;;;5026609;28;21269;-82
2024/03/21 04:00:13;;;;;;;4.40;4.07;;;12.10;99.90;;;;;;5026841;28;21230;-81
2024/03/21 04:02:43;;;;;;;4.97;4.20;;;12.10;99.90;;;;;;5042314;28;21026;-82
2024/03/21 04:05:14;;;;;;;3.70;3.50;;;12.20;99.90;;;;;;5040338;28;21396;-81
2024/03/21 04:07:42;;;;;;;4.53;4.30;;;12.20;99.90;;;;;;5043909;28;21034;-81
2024/03/21 04:10:09;;;;;;;4.20;3.90;;;12.20;99.90;;;;;;5045487;28;20541;-83
2024/03/21 04:12:35;;;;;;;4.67;4.37;;;12.30;99.90;;;;;;5035362;28;20535;-82
2024/03/21 04:15:03;;;;;;;3.87;3.60;;;12.30;99.90;;;;;;5033948;28;20458;-82
2024/03/21 04:17:29;;;;;;;4.27;3.97;;;12.30;99.90;;;;;;5034343;28;20537;-82
2024/03/21 04:19:56;;;;;;;5.20;3.97;;;12.30;99.90;;;;;;5039063;28;20957;-82
2024/03/21 04:22:24;;;;;;;3.97;3.67;;;12.30;99.90;;;;;;5035352;28;20475;-83
2024/03/21 04:24:51;;;;;;;4.13;3.83;;;12.30;99.90;;;;;;5035256;28;21309;-84
2024/03/21 04:27:18;;;;;;;4.07;3.77;;;12.30;99.90;;;;;;5034894;28;20488;-83
2024/03/21 04:29:45;;;;;;;3.90;3.60;;;12.40;99.90;;;;;;5036601;28;20439;-83
2024/03/21 04:32:14;;;;;;;3.50;3.30;;;12.40;99.90;;;;;;5034129;28;20472;-83
2024/03/21 04:34:41;;;;;;;3.60;3.40;;;12.40;99.90;;;;;;5035706;28;20521;-82
2024/03/21 04:37:16;;;;;;;3.87;3.63;;;12.60;99.90;;;;;;5034924;28;20521;-82
2024/03/21 04:39:44;;;;;;;4.17;3.70;;;12.50;99.90;;;;;;5052649;28;20579;-82
2024/03/21 04:42:12;;;;;;;3.60;3.30;;;12.60;99.90;;;;;;5037202;28;20782;-84
2024/03/21 04:44:39;;;;;;;3.87;3.57;;;12.70;99.90;;;;;;5036272;28;20568;-84
2024/03/21 04:47:07;;;;;;;2.90;2.80;;;12.70;99.90;;;;;;5018771;28;20528;-82
2024/03/21 04:49:35;;;;;;;4.27;3.90;;;12.60;99.90;;;;;;5033462;28;20552;-82
2024/03/21 04:52:01;;;;;;;6.23;3.43;;;12.60;99.90;;;;;;5035448;28;20456;-81
2024/03/21 04:54:28;;;;;;;3.80;3.50;;;12.60;99.90;;;;;;5032614;28;20577;-82
2024/03/21 04:56:56;;;;;;;3.60;3.40;;;12.70;99.90;;;;;;5033882;28;20577;-81
2024/03/21 04:59:25;;;;;;;4.47;3.57;;;12.70;99.90;;;;;;5033321;28;21476;-82
2024/03/21 05:01:52;;;;;;;3.30;3.10;;;12.80;99.90;;;;;;5030555;28;20462;-83
2024/03/21 05:04:19;;;;;;;3.70;3.40;;;12.80;99.90;;;;;;5035707;28;20565;-83
2024/03/21 05:06:45;;;;;;;3.27;3.07;;;12.90;99.90;;;;;;5019525;28;20547;-82
2024/03/21 05:09:13;;;;;;;3.50;3.30;;;12.90;99.90;;;;;;5034368;28;20454;-83
2024/03/21 05:11:39;;;;;;;4.03;3.83;;;12.90;99.90;;;;;;5034098;28;20682;-83
2024/03/21 05:14:08;;;;;;;3.90;3.50;;;13.00;99.90;;;;;;5035252;28;20486;-84
2024/03/21 05:16:34;;;;;;;3.57;3.27;;;12.90;99.90;;;;;;5034343;28;20488;-83
2024/03/21 05:19:02;;;;;;;3.40;3.20;;;13.00;99.90;;;;;;5031101;28;21003;-84
2024/03/21 05:21:28;;;;;;;3.57;3.43;;;12.90;99.90;;;;;;5032901;28;20485;-83
2024/03/21 05:23:55;;;;;;;4.80;3.97;;;12.80;99.90;;;;;;5035755;28;20509;-82
2024/03/21 05:26:21;;;;;;;3.60;3.40;;;12.80;99.90;;;;;;5036017;28;20461;-83
2024/03/21 05:28:49;;;;;;;3.60;3.40;;;12.80;99.90;;;;;;5018884;28;20540;-83
2024/03/21 05:31:24;;;;;;;5.40;3.90;;;12.70;99.90;;;;;;5018768;28;20572;-81
2024/03/21 05:33:53;;;;;;;4.97;4.67;;;12.70;99.90;;;;;;5037543;28;20484;-81
2024/03/21 05:36:21;;;;;;;4.57;4.17;;;12.70;99.90;;;;;;5053367;28;20508;-80
2024/03/21 05:38:48;;;;;;;4.70;4.30;;;12.70;99.90;;;;;;5037223;28;20461;-80
2024/03/21 05:41:15;;;;;;;4.07;3.70;;;12.70;99.90;;;;;;5035160;28;20576;-80
2024/03/21 05:43:42;;;;;;;4.00;3.80;;;12.70;99.90;;;;;;5037456;28;20562;-79
2024/03/21 05:46:08;;;;;;;4.00;3.70;;;12.80;99.90;;;;;;5033446;28;20462;-82
2024/03/21 05:48:37;;;;;;;4.80;3.80;;;12.80;99.90;;;;;;5036268;28;20490;-82
2024/03/21 05:51:04;;;;;;;3.80;3.43;;;12.80;99.90;;;;;;5038064;28;20478;-81
2024/03/21 05:53:31;;;;;;;4.03;3.53;;;12.90;99.90;;;;;;5033870;28;20572;-81
2024/03/21 05:56:00;;;;;;;3.70;3.50;;;12.90;99.90;;;;;;5032732;28;20502;-80
2024/03/21 05:58:27;;;;;;;3.77;3.53;;;12.90;99.90;;;;;;5032475;28;20910;-79
2024/03/21 06:00:55;;;;;;;4.30;4.00;;;13.00;99.90;;;;;;5033984;28;20484;-80
2024/03/21 06:03:22;;;;;;;4.77;3.60;;;13.10;99.90;;;;;;5034335;28;20565;-80
2024/03/21 06:05:50;;;;;;;3.53;3.33;;;13.20;99.90;;;;;;5033257;28;20458;-81
2024/03/21 06:08:17;;;;;;;3.60;3.33;;;13.30;99.90;;;;;;5017982;28;20430;-80
2024/03/21 06:10:43;;;;;;;3.97;3.77;;;13.30;99.90;;;;;;5033156;28;20515;-80
2024/03/21 06:13:10;;;;;;;4.07;3.77;;;13.40;99.90;;;;;;5032023;28;21005;-80
2024/03/21 06:15:36;;;;;;;3.83;3.53;;;13.40;99.90;;;;;;5035466;28;21011;-80
2024/03/21 06:18:04;;;;;;;3.70;3.47;;;13.50;99.90;;;;;;5036616;28;20474;-81
2024/03/21 06:20:30;;;;;;;4.13;3.83;;;13.50;99.90;;;;;;5032948;28;21078;-81
2024/03/21 06:22:59;;;;;;;4.53;4.17;;;13.60;99.90;;;;;;5037086;28;21055;-80
2024/03/21 06:25:25;;;;;;;3.93;3.73;;;13.60;99.90;;;;;;5034170;28;20463;-80
2024/03/21 06:27:52;;;;;;;6.10;3.90;;;13.60;99.90;;;;;;5035884;28;20451;-80
2024/03/21 06:30:19;;;;;;;3.97;3.70;;;13.60;99.90;;;;;;5017102;28;20447;-82
2024/03/21 06:32:46;;;;;;;3.90;3.57;;;13.60;99.90;;;;;;5033699;28;20489;-81
2024/03/21 06:35:13;;;;;;;4.07;3.77;;;13.60;99.90;;;;;;5037663;28;20507;-82
2024/03/21 06:37:40;;;;;;;3.80;3.60;;;13.60;99.90;;;;;;5033950;28;20485;-80
2024/03/21 06:40:09;;;;;;;3.80;3.57;;;13.60;99.90;;;;;;5031961;28;20980;-82
2024/03/21 06:42:36;;;;;;;3.80;3.60;;;13.60;99.90;;;;;;5037091;28;20579;-80
2024/03/21 06:45:04;;;;;;;3.40;3.30;;;13.60;99.90;;;;;;5036759;28;20445;-80
2024/03/21 06:47:31;;;;;;;3.90;3.70;;;13.60;99.90;;;;;;5037708;28;20505;-80
2024/03/21 06:49:58;;;;;;;3.60;3.40;;;13.60;99.90;;;;;;5017862;28;20450;-83
2024/03/21 06:52:25;;;;;;;4.37;4.17;;;13.60;99.90;;;;;;5036891;28;20545;-80
2024/03/21 06:54:51;;;;;;;3.73;3.53;;;13.70;1.00;;;;;;5039070;28;20465;-81
2024/03/21 06:57:21;;;;;;;3.90;3.60;;;13.70;99.90;;;;;;5035841;28;20524;-80
2024/03/21 06:59:47;;;;;;;3.87;3.73;;;13.70;1.00;;;;;;5037984;28;20446;-79
2024/03/21 07:02:15;;;;;;;3.90;3.70;;;13.70;1.00;;;;;;5037419;28;20554;-81
2024/03/21 07:04:41;;;;;;;4.40;4.10;;;13.60;1.00;;;;;;5035586;28;20479;-81
2024/03/21 07:07:08;;;;;;;4.50;4.20;;;13.60;1.00;;;;;;5038252;28;20997;-80
2024/03/21 07:09:34;;;;;;;5.40;4.87;;;13.70;1.00;;;;;;5040964;28;20541;-81
2024/03/21 07:12:02;;;;;;;4.47;4.17;;;13.60;1.00;;;;;;5036140;28;20527;-81
2024/03/21 07:14:32;;;;;;;4.63;4.20;;;13.60;1.00;;;;;;5038634;28;20537;-83
2024/03/21 07:17:00;;;;;;;4.57;4.27;;;13.70;1.00;;;;;;5038518;28;20965;-82
2024/03/21 07:19:33;;;;;;;4.67;4.37;;;13.60;1.00;;;;;;5034048;28;20538;-81
2024/03/21 07:22:00;;;;;;;4.50;4.30;;;13.60;1.00;;;;;;5045761;28;20526;-80
2024/03/21 07:24:27;;;;;;;4.70;4.30;;;13.60;1.00;;;;;;5050745;28;20487;-79
2024/03/21 07:26:54;;;;;;;4.60;4.33;;;13.60;1.00;;;;;;5045834;28;20483;-80
2024/03/21 07:29:21;;;;;;;4.70;4.30;;;13.60;33.00;;;;;;5042459;28;21075;-81
2024/03/21 07:31:49;;;;;;;4.77;4.53;;;13.60;23.20;;;;;;5042206;28;20471;-80
2024/03/21 07:34:15;;;;;;;3.73;3.57;;;13.60;16.30;;;;;;5039878;28;20551;-79
2024/03/21 07:36:43;;;;;;;4.50;4.20;;;13.60;87.50;;;;;;5039656;28;20493;-80
2024/03/21 07:39:10;;;;;;;4.93;4.63;;;13.60;99.90;;;;;;5039546;28;20594;-82
2024/03/21 07:41:37;;;;;;;4.57;4.27;;;13.70;98.70;;;;;;5040662;28;20470;-81
2024/03/21 07:44:03;;;;;;;4.80;4.50;;;13.70;90.10;;;;;;5040609;28;20489;-80
2024/03/21 07:46:30;;;;;;;4.97;4.70;;;13.70;99.90;;;;;;5042373;28;20830;-80
2024/03/21 07:48:58;;;;;;;5.00;4.70;;;13.70;99.90;;;;;;5040190;28;20459;-81
2024/03/21 07:51:25;;;;;;;5.57;5.20;;;13.80;99.90;;;;;;5038964;28;20514;-79
2024/03/21 07:53:55;;;;;;;5.13;4.83;;;13.80;99.90;;;;;;5039085;28;20557;-80
2024/03/21 07:56:22;;;;;;;5.33;5.03;;;13.80;99.90;;;;;;5041265;28;20475;-81
2024/03/21 07:58:48;;;;;;;4.27;4.07;;;13.90;99.90;;;;;;5036471;28;20471;-81
2024/03/21 08:01:15;;;;;;;5.03;4.63;;;14.00;99.90;;;;;;5045271;28;20546;-81
2024/03/21 08:03:41;;;;;;;5.50;5.10;;;14.00;99.90;;;;;;5037482;28;20578;-80
2024/03/21 08:06:10;;;;;;;4.97;4.63;;;14.00;99.90;;;;;;5037082;28;20577;-79
2024/03/21 08:08:36;;;;;;;5.90;5.60;;;14.10;99.90;;;;;;5036187;28;20869;-83
2024/03/21 08:11:04;;;;;;;7.27;5.87;;;14.20;28.90;;;;;;5039465;28;20452;-80
2024/03/21 08:13:30;;;;;;;4.97;4.77;;;14.20;63.80;;;;;;5040032;28;20476;-81
2024/03/21 08:15:57;;;;;;;4.70;4.50;;;14.20;99.90;;;;;;5038438;28;20452;-80
2024/03/21 08:18:23;;;;;;;5.73;5.47;;;14.30;99.90;;;;;;5036062;28;20477;-81
2024/03/21 08:20:51;;;;;;;5.90;4.90;;;14.20;99.90;;;;;;5040645;28;20516;-82
2024/03/21 08:23:19;;;;;;;5.60;5.30;;;14.30;99.90;;;;;;5039280;28;20462;-81
2024/03/21 08:25:46;;;;;;;5.67;5.37;;;14.40;99.90;;;;;;5039741;28;20541;-82
2024/03/21 08:28:13;;;;;;;6.47;5.87;;;14.50;99.90;;;;;;5036722;28;20448;-80
2024/03/21 08:30:43;;;;;;;5.80;5.40;;;14.50;99.90;;;;;;5038121;28;20542;-80
2024/03/21 08:33:09;;;;;;;5.53;5.23;;;14.50;99.90;;;;;;5038275;28;20501;-80
2024/03/21 08:35:37;;;;;;;6.50;6.10;;;14.60;41.90;;;;;;5020779;28;20892;-81
2024/03/21 08:38:03;;;;;;;5.90;5.40;;;14.70;1.00;;;;;;5041519;28;20472;-81
2024/03/21 08:40:33;;;;;;;5.50;5.20;;;14.80;1.00;;;;;;5038900;28;20543;-80
2024/03/21 08:42:59;;;;;;;6.20;5.90;;;14.80;1.00;;;;;;5039009;28;20919;-82
2024/03/21 08:45:26;;;;;;;6.23;5.93;;;14.80;1.00;;;;;;5036848;28;20489;-80
2024/03/21 08:47:53;;;;;;;7.20;6.50;;;14.90;1.00;;;;;;5039569;28;20898;-81
2024/03/21 08:50:21;;;;;;;6.37;5.97;;;14.80;1.00;;;;;;5038365;28;20461;-81
2024/03/21 08:52:47;;;;;;;6.23;5.90;;;14.90;1.00;;;;;;5040061;28;20513;-81
2024/03/21 08:55:15;;;;;;;6.83;6.13;;;14.90;1.00;;;;;;5032569;28;20514;-82
2024/03/21 08:57:43;;;;;;;6.50;6.10;;;14.90;1.00;;;;;;5038903;28;21062;-81
2024/03/21 09:00:13;;;;;;;6.53;6.23;;;15.10;1.00;;;;;;5037709;28;20568;-82
2024/03/21 09:02:39;;;;;;;6.67;6.33;;;15.10;1.00;;;;;;5040102;28;20470;-80
2024/03/21 09:05:07;;;;;;;7.10;6.80;;;15.10;1.00;;;;;;5039521;28;20450;-82
2024/03/21 09:07:34;;;;;;;6.20;5.77;;;15.30;1.00;;;;;;5038920;28;20450;-81
2024/03/21 09:10:01;;;;;;;6.43;5.83;;;15.40;1.00;;;;;;5036886;28;20495;-80
2024/03/21 09:12:27;;;;;;;7.13;6.73;;;15.40;1.00;;;;;;5036875;28;20493;-81
2024/03/21 09:14:56;;;;;;;6.30;6.00;;;15.60;1.00;;;;;;5033130;28;20592;-78
2024/03/21 09:17:22;;;;;;;6.53;6.13;;;15.80;1.00;;;;;;5039660;28;20485;-82
2024/03/21 09:19:49;;;;;;;6.70;6.30;;;16.00;99.90;;;;;;5041375;28;20490;-83
2024/03/21 09:22:15;;;;;;;7.10;6.70;;;16.00;99.90;;;;;;5037468;28;20486;-81
2024/03/21 09:24:44;;;;;;;7.00;6.60;;;15.90;99.90;;;;;;5037107;28;20504;-81
2024/03/21 09:27:10;;;;;;;7.20;6.73;;;15.80;99.90;;;;;;5036048;28;20549;-80
2024/03/21 09:29:37;;;;;;;7.60;6.97;;;15.80;99.90;;;;;;5037321;28;20485;-79
2024/03/21 09:32:06;;;;;;;7.13;6.53;;;15.90;99.90;;;;;;5035607;28;20501;-81
2024/03/21 09:34:33;;;;;;;6.80;6.50;;;15.90;99.90;;;;;;5035354;28;20593;-81
2024/03/21 09:36:59;;;;;;;8.00;7.40;;;16.20;99.90;;;;;;5035090;28;20463;-80
2024/03/21 09:39:26;;;;;;;6.90;6.53;;;16.20;99.90;;;;;;5037445;28;20443;-79
2024/03/21 09:41:53;;;;;;;7.23;6.63;;;16.50;99.90;;;;;;5035301;28;20450;-80
2024/03/21 09:44:21;;;;;;;6.93;6.53;;;16.70;99.90;;;;;;5036140;28;20506;-81
2024/03/21 09:46:48;;;;;;;7.37;6.77;;;16.70;99.90;;;;;;5035226;28;20549;-81
2024/03/21 09:49:17;;;;;;;6.07;5.70;;;16.70;99.90;;;;;;5032259;28;20562;-80
2024/03/21 09:51:43;;;;;;;6.97;6.43;;;16.80;99.90;;;;;;5040975;28;20661;-80
2024/03/21 09:54:12;;;;;;;7.40;6.90;;;16.90;99.90;;;;;;5037005;28;20579;-81
2024/03/21 09:56:38;;;;;;;8.20;6.37;;;16.80;99.90;;;;;;5038383;28;20475;-80
2024/03/21 09:59:12;;;;;;;6.17;5.50;;;16.80;99.90;;;;;;5034146;28;20572;-81
2024/03/21 10:01:38;;;;;;;6.33;5.80;;;16.80;99.90;;;;;;5034273;28;20547;-81
2024/03/21 10:04:07;;;;;;;7.33;6.80;;;16.60;99.90;;;;;;5019618;28;20487;-80
2024/03/21 10:06:43;;;;;;;5.87;5.37;;;16.50;99.90;;;;;;5033179;28;20944;-80
2024/03/21 10:09:11;;;;;;;6.67;6.27;;;16.40;99.90;;;;;;5036930;28;21029;-80
2024/03/21 10:11:37;;;;;;;6.90;6.30;;;16.40;99.90;;;;;;5034667;28;20586;-81
2024/03/21 10:14:04;;;;;;;6.07;5.77;;;16.50;99.90;;;;;;5032567;28;20511;-82
2024/03/21 10:16:32;;;;;;;5.53;5.13;;;16.50;99.90;;;;;;5034821;28;20523;-79
2024/03/21 10:19:00;;;;;;;5.73;5.33;;;16.40;99.90;;;;;;5033098;28;20574;-80
2024/03/21 10:21:27;;;;;;;5.67;5.37;;;16.50;99.90;;;;;;5038242;28;20538;-81
2024/03/21 10:24:03;;;;;;;6.67;6.17;;;16.70;99.90;;;;;;5036671;28;21102;-80
2024/03/21 10:26:29;;;;;;;8.60;5.53;;;16.80;99.90;;;;;;5034878;28;20474;-81
2024/03/21 10:28:57;;;;;;;5.80;5.40;;;16.80;99.90;;;;;;5035323;28;20568;-81
2024/03/21 10:31:23;;;;;;;5.00;4.70;;;16.90;99.90;;;;;;5035564;28;20543;-79
2024/03/21 10:33:54;;;;;;;6.47;6.07;;;17.10;99.90;;;;;;5033096;28;21087;-80
2024/03/21 10:36:21;;;;;;;6.83;6.33;;;17.10;99.90;;;;;;5034769;28;20493;-79
2024/03/21 10:38:48;;;;;;;6.57;5.97;;;17.20;99.90;;;;;;5022534;28;20560;-80
2024/03/21 10:41:22;;;;;;;6.47;5.97;;;17.40;99.90;;;;;;5034830;28;20533;-79
2024/03/21 10:43:53;;;;;;;5.20;4.90;;;17.50;99.90;;;;;;5036127;28;20577;-81
2024/03/21 10:46:22;;;;;;;6.83;5.90;;;17.50;99.90;;;;;;5035748;28;21090;-81
2024/03/21 10:48:50;;;;;;;6.40;5.90;;;17.50;99.90;;;;;;5053223;28;20468;-80
2024/03/21 10:51:19;;;;;;;5.50;5.10;;;17.50;99.90;;;;;;5033412;28;20463;-82
2024/03/21 10:53:52;;;;;;;5.67;5.17;;;17.60;99.90;;;;;;5034953;28;20528;-81
2024/03/21 10:56:25;;;;;;;5.53;5.13;;;17.50;99.90;;;;;;5035887;28;20451;-79
2024/03/21 10:58:57;;;;;;;6.87;6.17;;;17.50;99.90;;;;;;5031782;28;20487;-80
2024/03/21 11:01:34;;;;;;;6.27;5.83;;;17.40;99.90;;;;;;5052660;28;20544;-81
2024/03/21 11:04:05;;;;;;;6.03;5.50;;;17.40;99.90;;;;;;5041176;28;20563;-84
2024/03/21 11:06:33;;;;;;;7.83;7.13;;;17.40;99.90;;;;;;5041875;28;20444;-84
2024/03/21 11:09:02;;;;;;;7.33;6.93;;;17.60;99.90;;;;;;5051325;28;20475;-84
2024/03/21 11:11:29;;;;;;;10.83;9.87;;;17.70;99.90;;;;;;5048299;28;20520;-83
2024/03/21 11:14:01;;;;;;;10.53;9.63;;;17.80;99.90;;;;;;5040747;28;20487;-85
2024/03/21 11:16:28;;;;;;;7.93;7.13;;;17.90;99.90;;;;;;5037564;28;20460;-84
2024/03/21 11:18:55;;;;;;;7.20;6.60;;;17.90;99.90;;;;;;5042563;28;20888;-85
2024/03/21 11:21:22;;;;;;;7.50;6.90;;;18.00;99.90;;;;;;5042913;28;20444;-83
2024/03/21 11:23:49;;;;;;;8.30;7.53;;;18.10;99.90;;;;;;5038846;28;21169;-86
2024/03/21 11:26:17;;;;;;;6.90;6.30;;;18.20;99.90;;;;;;5048098;28;20501;-85
2024/03/21 11:28:50;;;;;;;7.37;6.77;;;18.20;99.90;;;;;;5048279;28;20444;-84
2024/03/21 11:31:18;;;;;;;8.43;5.97;;;18.20;99.90;;;;;;5043166;28;20437;-81
2024/03/21 11:33:46;;;;;;;7.00;6.40;;;18.10;99.90;;;;;;5041054;28;20475;-80
2024/03/21 11:36:12;;;;;;;6.70;6.20;;;18.20;99.90;;;;;;5042613;28;20439;-81
2024/03/21 11:38:39;;;;;;;6.77;6.17;;;18.10;99.90;;;;;;5040938;28;20888;-81
2024/03/21 11:41:05;;;;;;;6.27;5.83;;;18.20;99.90;;;;;;5040260;28;20514;-82
2024/03/21 11:43:36;;;;;;;6.80;6.10;;;18.20;99.90;;;;;;5042946;28;20981;-83
2024/03/21 11:46:04;;;;;;;6.37;5.77;;;18.20;99.90;;;;;;5038817;28;20442;-83
2024/03/21 11:48:31;;;;;;;5.90;5.40;;;18.20;99.90;;;;;;5044256;28;20482;-81
2024/03/21 11:50:57;;;;;;;4.90;4.50;;;18.20;99.90;;;;;;5044312;28;20499;-80
2024/03/21 11:53:25;;;;;;;5.57;5.03;;;18.20;99.90;;;;;;5047240;28;20475;-82
2024/03/21 11:55:51;;;;;;;6.00;5.60;;;18.30;99.90;;;;;;5046874;28;20491;-83
2024/03/21 11:58:19;;;;;;;5.10;4.70;;;18.40;99.90;;;;;;5028116;28;20468;-81
2024/03/21 12:00:45;;;;;;;5.00;4.50;;;18.30;99.90;;;;;;5044604;28;20994;-82
2024/03/21 12:03:14;;;;;;;5.10;4.70;;;18.30;99.90;;;;;;5046043;28;20467;-82
2024/03/21 12:05:40;;;;;;;4.47;4.27;;;18.30;99.90;;;;;;5047590;28;20463;-82
2024/03/21 12:08:08;;;;;;;4.60;4.20;;;18.40;99.90;;;;;;5043749;28;20455;-81
2024/03/21 12:10:34;;;;;;;6.13;5.30;;;18.40;99.90;;;;;;5049061;28;20961;-82
2024/03/21 12:13:01;;;;;;;4.63;4.23;;;18.40;99.90;;;;;;5044906;28;20480;-81
2024/03/21 12:15:28;;;;;;;5.30;4.77;;;18.50;99.90;;;;;;5047257;28;21052;-82
2024/03/21 12:17:55;;;;;;;5.57;5.17;;;18.50;99.90;;;;;;5047013;28;20573;-80
2024/03/21 12:20:23;;;;;;;5.80;5.20;;;18.50;99.90;;;;;;5033692;28;20448;-80
2024/03/21 12:22:50;;;;;;;5.17;4.77;;;18.50;99.90;;;;;;5041935;28;20491;-83
2024/03/21 12:25:17;;;;;;;6.03;5.20;;;18.60;99.90;;;;;;5046404;28;20502;-81
2024/03/21 12:27:44;;;;;;;4.70;4.30;;;18.60;99.90;;;;;;5045825;28;20954;-81
2024/03/21 12:30:11;;;;;;;6.53;5.57;;;18.60;99.90;;;;;;5048435;28;20506;-82
2024/03/21 12:32:39;;;;;;;5.10;4.70;;;18.60;99.90;;;;;;5047192;28;20435;-82
2024/03/21 12:35:07;;;;;;;5.23;3.97;;;18.50;99.90;;;;;;5046135;28;20444;-82
2024/03/21 12:37:36;;;;;;;5.00;4.70;;;18.40;99.90;;;;;;5046675;28;20922;-83
2024/03/21 12:40:02;;;;;;;4.90;4.50;;;18.30;99.90;;;;;;5045792;28;20540;-83
2024/03/21 12:42:30;;;;;;;5.13;4.67;;;18.30;99.90;;;;;;5045203;28;20444;-83
2024/03/21 12:44:56;;;;;;;5.27;4.87;;;18.30;99.90;;;;;;5049018;28;20562;-83
2024/03/21 12:47:23;;;;;;;5.00;4.70;;;18.30;99.90;;;;;;5046336;28;20455;-82
2024/03/21 12:49:49;;;;;;;4.83;4.50;;;18.30;99.90;;;;;;5045870;28;20491;-82
2024/03/21 12:52:17;;;;;;;5.67;5.17;;;18.30;99.90;;;;;;5029176;28;20462;-82